Time;durP1;ratioP1;P1;durP2;ratioP2;P2;SDS_P1;SDS_P2;PMS_P1;PMS_P2;Temp;Humidity;BMP_temperature;BMP_pressure;BME280_temperature;BME280_humidity;BME280_pressure;Samples;Min_cycle;Max_cycle;Signal;HPM_P1;HPM_P2
2024/02/25 00:02:42;;;;;;;2.92;1.63;;;;;;;3.82;100.00;100109.63;6325598;28;20051;-76
2024/02/25 00:05:43;;;;;;;2.03;1.30;;;;;;;3.80;100.00;100103.59;6325100;28;20043;-76
2024/02/25 00:08:46;;;;;;;2.88;1.30;;;;;;;3.79;100.00;100104.50;6324889;28;20051;-76
2024/02/25 00:11:47;;;;;;;1.92;1.15;;;;;;;3.73;100.00;100091.75;6325297;28;20040;-76
2024/02/25 00:14:48;;;;;;;1.70;1.33;;;;;;;3.80;100.00;100095.81;6325333;28;20044;-76
2024/02/25 00:17:50;;;;;;;3.30;1.10;;;;;;;3.80;100.00;100085.41;6324583;28;20048;-76
2024/02/25 00:20:51;;;;;;;6.88;1.33;;;;;;;3.74;100.00;100083.88;6325372;28;20043;-76
2024/02/25 00:23:54;;;;;;;5.20;1.23;;;;;;;3.76;100.00;100086.44;6324908;28;20048;-76
2024/02/25 00:26:55;;;;;;;2.15;1.23;;;;;;;3.75;100.00;100082.97;6324860;28;20040;-76
2024/02/25 00:29:56;;;;;;;1.30;0.80;;;;;;;3.73;100.00;100089.16;6324555;28;20051;-76
2024/02/25 00:32:58;;;;;;;1.10;0.93;;;;;;;3.70;100.00;100084.91;6324833;28;20352;-76
2024/02/25 00:35:59;;;;;;;3.20;1.55;;;;;;;3.60;100.00;100080.09;6324648;28;20051;-76
2024/02/25 00:39:03;;;;;;;2.28;1.15;;;;;;;3.58;100.00;100089.69;6324143;28;20048;-76
2024/02/25 00:42:05;;;;;;;1.00;0.85;;;;;;;3.56;100.00;100097.53;6324827;28;20340;-76
2024/02/25 00:45:06;;;;;;;3.08;0.93;;;;;;;3.50;100.00;100083.00;6324627;28;20048;-76
2024/02/25 00:48:08;;;;;;;3.90;1.35;;;;;;;3.52;100.00;100088.16;6324356;28;20052;-76
2024/02/25 00:51:09;;;;;;;1.83;0.90;;;;;;;3.54;100.00;100084.59;6324807;28;20075;-76
2024/02/25 00:54:12;;;;;;;1.50;0.90;;;;;;;3.53;100.00;100075.09;6324815;28;20455;-76
2024/02/25 00:57:13;;;;;;;1.08;0.93;;;;;;;3.58;100.00;100080.13;6325812;28;20040;-77
2024/02/25 01:00:18;;;;;;;0.95;0.70;;;;;;;3.56;100.00;100093.19;6329139;28;20052;-76
2024/02/25 01:03:19;;;;;;;2.25;1.08;;;;;;;3.58;100.00;100097.47;6329718;28;20071;-76
2024/02/25 01:06:21;;;;;;;2.33;1.00;;;;;;;3.59;100.00;100093.97;6329079;28;20352;-77
2024/02/25 01:09:23;;;;;;;0.70;0.60;;;;;;;3.61;100.00;100085.22;6329033;28;20043;-76
2024/02/25 01:12:25;;;;;;;1.30;0.85;;;;;;;3.64;100.00;100090.31;6329412;28;20044;-76
2024/02/25 01:15:26;;;;;;;1.67;0.90;;;;;;;3.63;100.00;100088.59;6328949;28;20415;-76
2024/02/25 01:18:27;;;;;;;1.52;0.95;;;;;;;3.65;100.00;100089.41;6328611;28;20040;-76
2024/02/25 01:21:29;;;;;;;2.03;1.10;;;;;;;3.70;100.00;100081.47;6329445;28;20044;-76
2024/02/25 01:24:31;;;;;;;1.65;0.70;;;;;;;3.65;100.00;100071.22;6328717;28;20044;-77
2024/02/25 01:27:33;;;;;;;3.80;1.05;;;;;;;3.74;100.00;100081.28;6329204;28;20036;-76
2024/02/25 01:30:34;;;;;;;0.63;0.60;;;;;;;3.74;100.00;100081.28;6328593;28;20562;-76
2024/02/25 01:33:35;;;;;;;1.58;0.88;;;;;;;3.81;100.00;100077.59;6328794;28;20048;-76
2024/02/25 01:36:37;;;;;;;0.80;0.68;;;;;;;3.83;100.00;100069.72;6328434;28;20071;-76
2024/02/25 01:39:39;;;;;;;0.95;0.85;;;;;;;3.87;100.00;100071.31;6328183;28;20044;-77
2024/02/25 01:42:41;;;;;;;0.95;0.85;;;;;;;3.94;100.00;100064.13;6328835;28;20113;-77
2024/02/25 01:45:43;;;;;;;1.00;0.85;;;;;;;4.01;100.00;100069.03;6328361;28;20393;-77
2024/02/25 01:48:50;;;;;;;1.48;0.85;;;;;;;4.08;100.00;100064.44;6333033;22;20458;-75
2024/02/25 01:51:52;;;;;;;2.63;1.00;;;;;;;4.06;100.00;100063.66;6303361;28;20047;-75
2024/02/25 01:54:56;;;;;;;1.25;0.75;;;;;;;4.05;100.00;100054.19;6303083;28;20045;-75
2024/02/25 01:57:59;;;;;;;5.22;0.93;;;;;;;3.98;100.00;100053.53;6302555;28;20496;-75
2024/02/25 02:01:01;;;;;;;0.65;0.50;;;;;;;3.92;100.00;100047.75;6303407;28;20049;-76
2024/02/25 02:04:03;;;;;;;1.83;0.63;;;;;;;3.90;100.00;100045.19;6302791;28;20052;-74
2024/02/25 02:07:04;;;;;;;3.33;0.50;;;;;;;3.88;100.00;100044.41;6303098;28;20052;-75
2024/02/25 02:10:09;;;;;;;1.92;0.70;;;;;;;3.99;100.00;100041.38;6302093;28;20059;-75
2024/02/25 02:13:10;;;;;;;1.13;0.73;;;;;;;4.05;100.00;100022.97;6302778;28;20197;-73
2024/02/25 02:16:13;;;;;;;0.73;0.38;;;;;;;4.06;100.00;100028.13;6302505;28;20443;-73
2024/02/25 02:19:15;;;;;;;0.88;0.70;;;;;;;4.03;100.00;100029.97;6302203;28;20467;-74
2024/02/25 02:22:17;;;;;;;3.35;0.80;;;;;;;3.93;100.00;100028.63;6302597;28;20329;-73
2024/02/25 02:25:19;;;;;;;1.08;0.82;;;;;;;3.89;100.00;100020.09;6302196;28;20040;-75
2024/02/25 02:28:20;;;;;;;0.50;0.50;;;;;;;3.95;100.00;100016.41;6302206;28;20045;-74
2024/02/25 02:31:21;;;;;;;0.80;0.52;;;;;;;3.90;100.00;100016.59;6302426;28;20348;-73
2024/02/25 02:34:23;;;;;;;3.08;0.60;;;;;;;3.87;100.00;100008.94;6302299;28;20544;-73
2024/02/25 02:37:26;;;;;;;1.10;0.43;;;;;;;3.83;100.00;100002.16;6302059;28;20345;-73
2024/02/25 02:40:27;;;;;;;2.22;0.50;;;;;;;3.82;100.00;100000.47;6301728;28;20037;-73
2024/02/25 02:43:28;;;;;;;6.20;1.17;;;;;;;3.83;100.00;100006.50;6302193;28;20044;-73
2024/02/25 02:46:30;;;;;;;3.20;0.63;;;;;;;3.84;100.00;99997.78;6301688;28;20040;-73
2024/02/25 02:49:31;;;;;;;0.65;0.47;;;;;;;3.85;100.00;99995.13;6301439;28;20135;-73
2024/02/25 02:52:34;;;;;;;0.88;0.45;;;;;;;3.91;100.00;99987.13;6301733;28;20333;-73
2024/02/25 02:55:36;;;;;;;0.45;0.45;;;;;;;3.89;100.00;99991.50;6301748;28;20044;-73
2024/02/25 02:58:37;;;;;;;4.20;0.77;;;;;;;3.89;100.00;99986.31;6301275;28;20044;-73
2024/02/25 03:01:38;;;;;;;2.20;0.50;;;;;;;3.89;100.00;99985.47;6301644;28;20388;-73
2024/02/25 03:04:40;;;;;;;0.80;0.55;;;;;;;3.88;100.00;99982.03;6301390;28;20051;-74
2024/02/25 03:07:48;;;;;;;0.88;0.60;;;;;;;3.92;100.00;99987.97;6301698;28;20037;-73
2024/02/25 03:10:51;;;;;;;1.83;0.50;;;;;;;3.89;100.00;99977.66;6301466;28;20047;-73
2024/02/25 03:13:52;;;;;;;3.53;0.50;;;;;;;3.87;100.00;99976.91;6301108;28;20376;-73
2024/02/25 03:16:54;;;;;;;1.60;0.40;;;;;;;3.85;100.00;99973.50;6301253;28;20040;-73
2024/02/25 03:19:55;;;;;;;1.10;0.60;;;;;;;3.86;100.00;99970.84;6300261;28;20048;-73
2024/02/25 03:22:58;;;;;;;1.58;0.68;;;;;;;3.89;100.00;99965.53;6301320;28;20056;-73
2024/02/25 03:25:59;;;;;;;0.75;0.60;;;;;;;3.93;100.00;99964.50;6300802;28;20048;-73
2024/02/25 03:29:00;;;;;;;4.10;1.15;;;;;;;3.98;100.00;99965.16;6300656;28;20059;-73
2024/02/25 03:32:02;;;;;;;1.45;0.88;;;;;;;4.00;100.00;99965.13;6300883;28;20056;-73
2024/02/25 03:35:04;;;;;;;2.40;1.00;;;;;;;4.05;100.00;99968.38;6300559;28;20080;-73
2024/02/25 03:38:07;;;;;;;1.33;0.50;;;;;;;4.08;100.00;99974.28;6280368;28;20041;-74
2024/02/25 03:41:08;;;;;;;6.63;0.75;;;;;;;4.11;100.00;99969.88;6295033;28;20449;-73
2024/02/25 03:44:10;;;;;;;0.88;0.45;;;;;;;4.13;100.00;99974.09;6300677;28;20077;-73
2024/02/25 03:47:11;;;;;;;0.88;0.70;;;;;;;4.15;100.00;99969.72;6283865;28;20047;-73
2024/02/25 03:50:12;;;;;;;0.95;0.57;;;;;;;4.19;100.00;99967.84;6299924;28;20109;-73
2024/02/25 03:53:15;;;;;;;3.70;0.68;;;;;;;4.16;100.00;99971.41;6292618;28;20354;-73
2024/02/25 03:56:16;;;;;;;1.25;0.82;;;;;;;4.19;100.00;99975.66;6300065;28;20048;-74
2024/02/25 03:59:18;;;;;;;2.33;0.50;;;;;;;4.19;100.00;99971.28;6299766;28;20044;-73
2024/02/25 04:02:19;;;;;;;1.73;0.57;;;;;;;4.20;100.00;99967.78;6300261;28;20048;-73
2024/02/25 04:05:20;;;;;;;0.68;0.68;;;;;;;4.22;100.00;99968.53;6300164;28;20044;-73
2024/02/25 04:08:24;;;;;;;0.88;0.60;;;;;;;4.18;100.00;99972.19;6299565;28;20044;-73
2024/02/25 04:11:25;;;;;;;1.55;0.85;;;;;;;4.18;100.00;99969.59;6300435;28;20045;-73
2024/02/25 04:14:27;;;;;;;1.15;0.50;;;;;;;4.14;100.00;99968.03;6299765;28;20049;-73
2024/02/25 04:17:29;;;;;;;0.47;0.40;;;;;;;4.16;100.00;99966.19;6300153;28;20047;-73
2024/02/25 04:20:31;;;;;;;3.30;0.70;;;;;;;4.13;100.00;99958.50;6299694;28;20444;-73
2024/02/25 04:23:33;;;;;;;1.27;0.75;;;;;;;4.16;100.00;99962.75;6300081;28;20451;-74
2024/02/25 04:26:35;;;;;;;1.30;0.60;;;;;;;4.15;100.00;99955.88;6299905;28;20040;-74
2024/02/25 04:29:37;;;;;;;6.78;0.90;;;;;;;4.15;100.00;99956.72;6299246;28;20056;-73
2024/02/25 04:32:40;;;;;;;0.30;0.30;;;;;;;4.14;100.00;99957.63;6300088;28;20044;-74
2024/02/25 04:35:41;;;;;;;1.33;0.70;;;;;;;4.22;100.00;99950.34;6299542;28;20135;-74
2024/02/25 04:38:46;;;;;;;0.82;0.60;;;;;;;4.27;100.00;99953.63;6299327;28;20043;-74
2024/02/25 04:41:48;;;;;;;0.93;0.40;;;;;;;4.31;100.00;99946.53;6300305;28;20174;-74
2024/02/25 04:44:49;;;;;;;1.38;0.82;;;;;;;4.37;100.00;99943.69;6299622;28;20520;-74
2024/02/25 04:47:51;;;;;;;1.70;0.70;;;;;;;4.42;100.00;99946.09;6299064;28;20040;-74
2024/02/25 04:50:55;;;;;;;1.30;0.60;;;;;;;4.50;100.00;99954.44;6300050;28;20044;-74
2024/02/25 04:53:58;;;;;;;5.45;0.68;;;;;;;4.55;100.00;99948.16;6299649;28;20099;-74
2024/02/25 04:56:59;;;;;;;5.82;0.60;;;;;;;4.58;100.00;99942.78;6299564;28;20047;-74
2024/02/25 05:00:00;;;;;;;1.10;0.52;;;;;;;4.61;100.00;99948.78;6299113;28;20088;-73
2024/02/25 05:03:02;;;;;;;0.90;0.63;;;;;;;4.62;100.00;99945.28;6299450;28;20056;-73
2024/02/25 05:06:04;;;;;;;1.15;0.60;;;;;;;4.65;100.00;99952.97;6299496;28;20049;-73
2024/02/25 05:09:07;;;;;;;1.75;0.60;;;;;;;4.70;100.00;99944.03;6298954;28;20048;-73
2024/02/25 05:12:08;;;;;;;0.50;0.50;;;;;;;4.69;100.00;99942.38;6299374;28;20460;-73
2024/02/25 05:15:10;;;;;;;1.38;0.60;;;;;;;4.74;100.00;99942.16;6299007;28;20059;-73
2024/02/25 05:18:11;;;;;;;1.10;0.85;;;;;;;4.75;100.00;99947.31;6298740;28;20116;-74
2024/02/25 05:21:13;;;;;;;1.48;0.77;;;;;;;4.78;100.00;99949.78;6299159;28;20044;-73
2024/02/25 05:24:18;;;;;;;1.58;0.63;;;;;;;4.79;100.00;99948.03;6299099;28;20081;-74
2024/02/25 05:27:21;;;;;;;1.35;0.52;;;;;;;4.81;100.00;99946.19;6299539;28;20056;-74
2024/02/25 05:30:23;;;;;;;3.35;0.80;;;;;;;4.76;100.00;99941.19;6298874;28;20178;-74
2024/02/25 05:33:25;;;;;;;0.88;0.60;;;;;;;4.77;100.00;99948.09;6299285;28;20041;-74
2024/02/25 05:36:26;;;;;;;1.00;0.73;;;;;;;4.85;100.00;99947.75;6298700;28;20052;-74
2024/02/25 05:39:29;;;;;;;1.00;0.70;;;;;;;4.84;100.00;99948.66;6298410;28;20071;-74
2024/02/25 05:42:31;;;;;;;0.73;0.50;;;;;;;4.87;100.00;99947.72;6299061;28;20052;-74
2024/02/25 05:45:32;;;;;;;0.60;0.50;;;;;;;4.86;100.00;99941.66;6303494;28;20048;-74
2024/02/25 05:48:34;;;;;;;0.77;0.60;;;;;;;4.87;100.00;99938.13;6302772;28;20048;-74
2024/02/25 05:51:35;;;;;;;4.22;0.50;;;;;;;4.87;100.00;99940.75;6303300;28;20363;-74
2024/02/25 05:54:38;;;;;;;0.43;0.43;;;;;;;4.86;100.00;99949.47;6303094;28;20040;-73
2024/02/25 05:57:40;;;;;;;1.70;0.80;;;;;;;4.88;100.00;99939.81;6303423;28;20047;-74
2024/02/25 06:00:42;;;;;;;0.63;0.60;;;;;;;4.91;100.00;99949.28;6302718;28;20048;-74
2024/02/25 06:03:45;;;;;;;0.88;0.65;;;;;;;4.95;100.00;99940.38;6302744;28;20048;-74
2024/02/25 06:06:50;;;;;;;3.00;0.90;;;;;;;4.91;100.00;99933.66;6303176;28;20437;-73
2024/02/25 06:09:53;;;;;;;1.02;0.70;;;;;;;4.97;100.00;99942.03;6302221;28;20041;-74
2024/02/25 06:12:54;;;;;;;0.93;0.70;;;;;;;5.02;100.00;99939.22;6302973;28;20163;-74
2024/02/25 06:15:55;;;;;;;3.15;0.70;;;;;;;5.04;100.00;99940.88;6302581;28;20052;-74
2024/02/25 06:18:57;;;;;;;1.15;0.70;;;;;;;5.06;100.00;99935.56;6302299;28;20456;-74
2024/02/25 06:21:58;;;;;;;2.78;0.88;;;;;;;5.07;100.00;99938.09;6302662;28;20048;-74
2024/02/25 06:25:00;;;;;;;1.75;0.60;;;;;;;5.04;100.00;99938.25;6302357;28;20085;-74
2024/02/25 06:28:02;;;;;;;1.45;0.75;;;;;;;4.99;100.00;99941.94;6301904;28;20348;-74
2024/02/25 06:31:04;;;;;;;1.85;1.13;;;;;;;4.96;100.00;99940.34;6302501;28;20452;-74
2024/02/25 06:34:05;;;;;;;2.03;0.75;;;;;;;4.98;100.00;99948.91;6302121;28;20127;-75
2024/02/25 06:37:07;;;;;;;1.52;0.80;;;;;;;4.95;100.00;99949.06;6302263;28;20044;-74
2024/02/25 06:40:11;;;;;;;1.15;1.05;;;;;;;4.99;100.00;99944.56;6301774;28;20053;-74
2024/02/25 06:43:12;;;;;;;1.75;0.70;;;;;;;4.97;100.00;99949.00;6302198;28;20045;-74
2024/02/25 06:46:13;;;;;;;1.25;0.57;;;;;;;4.96;100.00;99948.16;6301959;28;20044;-74
2024/02/25 06:49:15;;;;;;;5.00;0.68;;;;;;;4.93;100.00;99953.47;6293000;28;20349;-74
2024/02/25 06:52:16;;;;;;;3.83;0.73;;;;;;;4.90;100.00;99957.97;6302062;28;20044;-74
2024/02/25 06:55:19;;;;;;;1.13;0.73;;;;;;;4.89;100.00;99953.69;6300558;28;20048;-74
2024/02/25 06:58:20;;;;;;;0.90;0.52;;;;;;;4.84;100.00;99951.28;6301395;28;20037;-74
2024/02/25 07:01:21;;;;;;;4.20;0.82;;;;;;;4.80;100.00;99960.13;6301909;28;20352;-74
2024/02/25 07:04:24;;;;;;;1.73;0.77;;;;;;;4.88;100.00;99952.00;6301597;28;20041;-74
2024/02/25 07:07:26;;;;;;;0.95;0.65;;;;;;;4.97;100.00;99956.81;6301435;28;20345;-74
2024/02/25 07:10:28;;;;;;;4.65;0.80;;;;;;;5.10;100.00;99960.56;6301252;28;20051;-74
2024/02/25 07:13:32;;;;;;;1.15;0.75;;;;;;;5.19;100.00;99960.16;6301744;28;20048;-74
2024/02/25 07:16:33;;;;;;;2.75;0.98;;;;;;;5.23;100.00;99959.13;6301236;28;20417;-74
2024/02/25 07:19:34;;;;;;;1.55;0.90;;;;;;;5.30;100.00;99962.28;6300754;28;20045;-74
2024/02/25 07:22:36;;;;;;;1.80;0.47;;;;;;;5.39;100.00;99958.44;6301122;28;20048;-74
2024/02/25 07:25:38;;;;;;;0.85;0.68;;;;;;;5.45;100.00;99963.38;6301011;28;20455;-73
2024/02/25 07:28:41;;;;;;;0.80;0.73;;;;;;;5.54;100.00;99965.56;6300943;28;20056;-74
2024/02/25 07:31:42;;;;;;;1.23;0.57;;;;;;;5.58;100.00;99962.75;6301233;28;20048;-74
2024/02/25 07:34:44;;;;;;;1.90;0.70;;;;;;;5.61;100.00;99969.59;6300689;28;20448;-74
2024/02/25 07:37:49;;;;;;;0.88;0.60;;;;;;;5.61;100.00;99966.97;6301018;28;20045;-74
2024/02/25 07:40:52;;;;;;;2.97;1.20;;;;;;;5.59;100.00;99966.22;6300849;28;20044;-74
2024/02/25 07:43:53;;;;;;;1.02;0.77;;;;;;;5.65;100.00;99971.16;6300677;28;20441;-74
2024/02/25 07:46:55;;;;;;;2.38;1.05;;;;;;;5.65;100.00;99971.16;6300892;28;20052;-74
2024/02/25 07:49:56;;;;;;;3.33;1.17;;;;;;;5.74;100.00;99975.09;6311869;22;20049;-78
2024/02/25 07:52:57;;;;;;;1.90;0.90;;;;;;;5.78;100.00;99972.28;6300344;28;20368;-78
2024/02/25 07:56:00;;;;;;;1.00;0.70;;;;;;;5.87;100.00;99978.81;6300143;28;20044;-77
2024/02/25 07:59:01;;;;;;;0.77;0.60;;;;;;;5.95;100.00;99976.75;6312915;28;20348;-78
2024/02/25 08:02:03;;;;;;;1.38;0.90;;;;;;;6.03;100.00;99974.59;6325420;28;20043;-77
2024/02/25 08:05:09;;;;;;;1.63;0.85;;;;;;;6.05;100.00;99974.56;6325236;28;20059;-78
2024/02/25 08:08:10;;;;;;;0.52;0.50;;;;;;;6.16;100.00;99974.03;6324784;28;20050;-78
2024/02/25 08:11:13;;;;;;;1.83;0.75;;;;;;;6.18;100.00;99969.59;6325258;28;20044;-78
2024/02/25 08:14:14;;;;;;;0.80;0.50;;;;;;;6.27;100.00;99963.94;6325371;28;20443;-78
2024/02/25 08:17:16;;;;;;;0.82;0.70;;;;;;;6.33;100.00;99966.25;6325649;28;20060;-78
2024/02/25 08:20:17;;;;;;;1.55;0.80;;;;;;;6.38;100.00;99966.03;6324732;28;20048;-78
2024/02/25 08:23:19;;;;;;;4.55;1.15;;;;;;;6.45;100.00;99965.66;6325106;28;20340;-78
2024/02/25 08:26:21;;;;;;;1.05;0.77;;;;;;;6.49;100.00;99961.13;6324778;28;20131;-77
2024/02/25 08:29:23;;;;;;;1.52;0.82;;;;;;;6.49;100.00;99969.78;6324547;28;20044;-78
2024/02/25 08:32:24;;;;;;;2.20;0.60;;;;;;;6.55;100.00;99981.72;6325288;28;20043;-78
2024/02/25 08:35:25;;;;;;;0.93;0.75;;;;;;;6.57;100.00;99974.63;6324773;28;20040;-78
2024/02/25 08:38:27;;;;;;;1.52;0.63;;;;;;;6.64;100.00;99981.25;6324242;28;20432;-78
2024/02/25 08:41:29;;;;;;;2.72;1.10;;;;;;;6.69;100.00;99979.25;6325028;28;20187;-78
2024/02/25 08:44:31;;;;;;;0.90;0.73;;;;;;;6.81;100.00;99985.63;6324708;28;20428;-77
2024/02/25 08:47:32;;;;;;;2.30;1.00;;;;;;;6.86;100.00;99989.72;6324997;28;20040;-78
2024/02/25 08:50:33;;;;;;;3.80;1.10;;;;;;;6.90;100.00;99989.53;6324184;28;20044;-78
2024/02/25 08:53:35;;;;;;;1.52;1.00;;;;;;;6.97;100.00;99976.09;6324747;28;20321;-77
2024/02/25 08:56:37;;;;;;;2.08;0.80;;;;;;;6.97;100.00;99986.56;6324489;28;20044;-77
2024/02/25 08:59:39;;;;;;;4.20;0.98;;;;;;;7.01;100.00;99980.25;6324109;28;20043;-76
2024/02/25 09:02:40;;;;;;;3.28;0.90;;;;;;;7.00;100.00;99975.13;6324619;28;20056;-77
2024/02/25 09:05:42;;;;;;;4.10;0.98;;;;;;;6.98;100.00;99974.34;6324362;28;20048;-77
2024/02/25 09:08:43;;;;;;;1.77;1.10;;;;;;;6.96;100.00;99989.25;6324047;28;20162;-77
2024/02/25 09:11:46;;;;;;;2.80;0.90;;;;;;;7.10;100.00;99973.72;6324745;28;20051;-77
2024/02/25 09:14:47;;;;;;;2.25;0.82;;;;;;;7.18;100.00;99987.25;6324409;28;20344;-76
2024/02/25 09:17:49;;;;;;;2.10;1.10;;;;;;;7.29;100.00;99982.28;6324446;28;20170;-77
2024/02/25 09:20:50;;;;;;;3.13;1.00;;;;;;;7.29;100.00;99976.22;6329390;28;20352;-77
2024/02/25 09:23:51;;;;;;;2.25;1.20;;;;;;;7.21;100.00;99976.59;6328889;28;20056;-77
2024/02/25 09:26:54;;;;;;;1.80;0.85;;;;;;;7.19;100.00;99977.63;6329372;28;20059;-77
2024/02/25 09:29:56;;;;;;;2.45;1.20;;;;;;;7.16;100.00;99975.16;6328491;28;20447;-77
2024/02/25 09:32:57;;;;;;;1.90;1.00;;;;;;;7.22;100.00;99974.84;6329116;28;20052;-78
2024/02/25 09:35:59;;;;;;;3.13;0.93;;;;;;;7.27;100.00;99973.69;6328718;28;20075;-75
2024/02/25 09:39:03;;;;;;;1.90;1.00;;;;;;;7.36;100.00;99973.22;6328473;28;20040;-77
2024/02/25 09:42:07;;;;;;;3.28;1.00;;;;;;;7.38;100.00;99973.97;6328810;28;20051;-76
2024/02/25 09:45:17;;;;;;;3.55;1.42;;;;;;;7.42;100.00;99976.44;6328894;28;20451;-76
2024/02/25 09:48:19;;;;;;;1.92;1.25;;;;;;;7.44;100.00;99972.78;6328246;28;20044;-77
2024/02/25 09:51:22;;;;;;;2.30;0.93;;;;;;;7.52;100.00;99978.47;6328587;28;20126;-76
2024/02/25 09:54:24;;;;;;;2.10;1.45;;;;;;;7.56;100.00;99973.91;6328423;28;20127;-78
2024/02/25 09:57:27;;;;;;;1.80;1.10;;;;;;;7.68;100.00;99969.81;6328387;28;20119;-77
2024/02/25 10:00:28;;;;;;;3.50;1.63;;;;;;;7.67;100.00;99975.94;6328002;28;20055;-77
2024/02/25 10:03:30;;;;;;;2.15;0.88;;;;;;;7.81;100.00;99981.28;6328233;28;20067;-77
2024/02/25 10:06:36;;;;;;;3.80;1.60;;;;;;;7.83;100.00;99979.44;6328200;28;20052;-76
2024/02/25 10:09:37;;;;;;;1.45;1.00;;;;;;;7.79;100.00;99978.75;6327642;28;20348;-76
2024/02/25 10:12:41;;;;;;;2.80;1.00;;;;;;;7.84;100.00;99973.28;6328331;28;20047;-77
2024/02/25 10:15:42;;;;;;;1.73;0.95;;;;;;;7.75;100.00;99977.22;6327753;28;20067;-76
2024/02/25 10:18:44;;;;;;;1.08;0.88;;;;;;;7.79;100.00;99975.31;6327800;28;20040;-78
2024/02/25 10:21:45;;;;;;;1.42;0.90;;;;;;;7.87;100.00;99983.59;6327870;28;20177;-76
2024/02/25 10:24:47;;;;;;;3.50;1.15;;;;;;;7.85;100.00;99982.81;6327869;28;20044;-76
2024/02/25 10:27:49;;;;;;;1.02;0.82;;;;;;;7.81;100.00;99976.91;6327659;28;20356;-76
2024/02/25 10:30:58;;;;;;;0.70;0.70;;;;;;;7.79;100.00;99973.53;6327446;28;20051;-78
2024/02/25 10:34:00;;;;;;;1.27;0.95;;;;;;;7.92;100.00;99973.72;6327539;28;20139;-78
2024/02/25 10:37:02;;;;;;;1.13;0.75;;;;;;;7.97;100.00;99976.06;6327412;28;20062;-78
2024/02/25 10:40:05;;;;;;;1.90;0.85;;;;;;;7.99;100.00;99977.66;6327088;28;20040;-78
2024/02/25 10:43:12;;;;;;;2.13;0.95;;;;;;;7.99;100.00;99975.03;6327411;28;20452;-78
2024/02/25 10:46:22;;;;;;;3.17;0.90;;;;;;;8.12;100.00;99965.59;6327326;28;20352;-77
2024/02/25 10:49:25;;;;;;;1.33;0.80;;;;;;;8.21;100.00;99966.00;6326615;28;20047;-77
2024/02/25 10:52:27;;;;;;;4.07;1.40;;;;;;;8.30;100.00;99958.47;6327186;28;20055;-77
2024/02/25 10:55:28;;;;;;;1.23;0.88;;;;;;;8.26;100.00;99962.19;6326819;28;20040;-77
2024/02/25 10:58:32;;;;;;;1.70;0.80;;;;;;;8.39;100.00;99962.38;6326689;28;20043;-76
2024/02/25 11:01:38;;;;;;;1.80;0.70;;;;;;;8.32;100.00;99954.00;6326785;28;20048;-77
2024/02/25 11:04:39;;;;;;;1.85;0.90;;;;;;;8.33;100.00;99962.72;6326824;28;20052;-77
2024/02/25 11:07:43;;;;;;;1.45;0.70;;;;;;;8.42;100.00;99964.84;6326705;28;20064;-77
2024/02/25 11:10:45;;;;;;;1.75;0.90;;;;;;;8.38;100.00;99960.69;6326471;28;20040;-78
2024/02/25 11:13:48;;;;;;;1.83;1.00;;;;;;;8.41;100.00;99965.78;6326214;28;20344;-77
2024/02/25 11:16:50;;;;;;;1.38;0.63;;;;;;;8.47;100.00;99965.41;6300759;28;20048;-77
2024/02/25 11:20:04;;;;;;;1.15;0.82;;;;;;;8.39;100.00;99959.75;6282596;28;20037;-78
2024/02/25 11:23:06;;;;;;;1.38;0.98;;;;;;;8.45;100.00;99966.41;6295604;28;20048;-79
2024/02/25 11:26:38;;;;;;;0.70;0.70;;;;;;;8.45;100.00;99958.56;6300320;28;20052;-79
2024/02/25 11:29:43;;;;;;;1.15;0.73;;;;;;;8.43;100.00;99956.03;6291404;28;20071;-78
2024/02/25 11:32:44;;;;;;;1.25;0.80;;;;;;;8.42;100.00;99959.59;6300283;28;20053;-77
2024/02/25 11:35:46;;;;;;;1.13;0.70;;;;;;;8.39;100.00;99960.59;6307709;28;20048;-77
2024/02/25 11:38:48;;;;;;;2.05;0.75;;;;;;;8.48;100.00;99959.25;6295930;28;20412;-77
2024/02/25 11:41:50;;;;;;;1.00;0.90;;;;;;;8.70;100.00;99947.53;6292546;28;20055;-78
2024/02/25 11:44:52;;;;;;;0.60;0.60;;;;;;;8.68;100.00;99947.63;6299055;28;20051;-79
2024/02/25 11:47:54;;;;;;;1.13;0.65;;;;;;;8.58;100.00;99946.44;6316286;28;20463;-77
2024/02/25 11:50:56;;;;;;;1.08;0.70;;;;;;;8.50;100.00;99952.16;6325618;28;20036;-78
2024/02/25 11:53:57;;;;;;;2.05;0.70;;;;;;;8.55;100.00;99952.72;6324855;28;20139;-79
2024/02/25 11:56:59;;;;;;;0.82;0.63;;;;;;;8.53;100.00;99959.81;6295366;28;20059;-77
2024/02/25 12:00:01;;;;;;;1.55;0.65;;;;;;;8.51;100.00;99953.00;6291892;28;20181;-80
2024/02/25 12:03:03;;;;;;;0.80;0.70;;;;;;;8.56;100.00;99946.56;6313031;28;20056;-78
2024/02/25 12:06:05;;;;;;;0.80;0.60;;;;;;;8.66;100.00;99938.16;6301390;28;20055;-79
2024/02/25 12:09:07;;;;;;;2.63;0.90;;;;;;;8.74;100.00;99930.72;6310700;28;20053;-78
2024/02/25 12:12:09;;;;;;;3.15;0.80;;;;;;;8.86;100.00;99930.00;6304639;28;20437;-78
2024/02/25 12:15:11;;;;;;;0.60;0.60;;;;;;;8.99;100.00;99927.47;6301922;28;20056;-78
2024/02/25 12:18:14;;;;;;;1.67;0.47;;;;;;;9.12;100.00;99933.66;6300532;28;20326;-79
2024/02/25 12:21:16;;;;;;;0.80;0.70;;;;;;;9.29;100.00;99935.25;6299704;28;20040;-79
2024/02/25 12:24:18;;;;;;;0.88;0.52;;;;;;;9.36;100.00;99931.34;6300177;28;20044;-79
2024/02/25 12:27:20;;;;;;;1.35;0.90;;;;;;;9.30;100.00;99926.44;6293926;28;20052;-79
2024/02/25 12:30:30;;;;;;;1.45;1.20;;;;;;;9.48;100.00;99927.09;6299049;28;20045;-78
2024/02/25 12:33:32;;;;;;;4.85;0.60;;;;;;;9.78;100.00;99929.59;6301330;28;20365;-78
2024/02/25 12:36:33;;;;;;;2.50;0.80;;;;;;;9.74;100.00;99923.69;6304166;28;20044;-79
2024/02/25 12:39:39;;;;;;;0.80;0.60;;;;;;;9.82;100.00;99915.34;6300651;28;20048;-77
2024/02/25 12:42:47;;;;;;;2.95;0.70;;;;;;;10.23;100.00;99917.94;6300774;28;20060;-79
2024/02/25 12:45:50;;;;;;;1.25;0.73;;;;;;;10.13;100.00;99920.31;6297703;28;20424;-77
2024/02/25 12:48:52;;;;;;;1.30;0.65;;;;;;;10.02;100.00;99922.78;6306753;28;20048;-75
2024/02/25 12:51:53;;;;;;;0.57;0.52;;;;;;;10.25;100.00;99905.56;6307419;28;20428;-78
2024/02/25 12:54:55;;;;;;;0.90;0.52;;;;;;;10.63;100.00;99910.91;6320204;28;20041;-77
2024/02/25 12:57:56;;;;;;;0.40;0.40;;;;;;;10.57;100.00;99903.44;6290366;28;20357;-77
2024/02/25 13:00:59;;;;;;;1.27;0.80;;;;;;;10.11;100.00;99909.06;6303277;28;20045;-78
2024/02/25 13:04:00;;;;;;;0.68;0.60;;;;;;;9.97;100.00;99921.38;6313118;28;20048;-76
2024/02/25 13:07:02;;;;;;;0.52;0.50;;;;;;;9.82;100.00;99904.84;6329579;28;20052;-78
2024/02/25 13:10:05;;;;;;;2.10;0.75;;;;;;;9.94;100.00;99914.53;6329409;28;20044;-76
2024/02/25 13:13:06;;;;;;;0.82;0.65;;;;;;;9.92;100.00;99905.94;6329493;28;20131;-75
2024/02/25 13:16:09;;;;;;;0.40;0.40;;;;;;;9.89;100.00;99908.75;6329437;28;20048;-75
2024/02/25 13:19:10;;;;;;;0.50;0.50;;;;;;;10.09;100.00;99904.88;6300342;28;20052;-75
2024/02/25 13:22:11;;;;;;;1.95;0.90;;;;;;;10.14;100.00;99902.78;6296935;28;20059;-78
2024/02/25 13:25:15;;;;;;;2.13;0.60;;;;;;;10.41;100.00;99908.88;6294877;28;20345;-77
2024/02/25 13:28:17;;;;;;;1.23;0.63;;;;;;;10.83;100.00;99906.09;6298972;28;20055;-77
2024/02/25 13:31:20;;;;;;;0.35;0.35;;;;;;;11.13;98.09;99901.38;6304007;28;20048;-77
2024/02/25 13:34:21;;;;;;;0.52;0.50;;;;;;;11.12;96.00;99909.34;6323733;28;20055;-77
2024/02/25 13:37:22;;;;;;;4.47;0.70;;;;;;;10.74;98.23;99897.06;6328885;28;20348;-78
2024/02/25 13:40:24;;;;;;;0.70;0.35;;;;;;;10.77;100.00;99901.28;6327853;28;20047;-78
2024/02/25 13:43:26;;;;;;;1.17;0.47;;;;;;;10.72;98.28;99903.34;6328991;28;20048;-78
2024/02/25 13:46:28;;;;;;;1.92;0.80;;;;;;;10.52;96.65;99892.38;6328903;28;20052;-77
2024/02/25 13:49:30;;;;;;;1.70;0.57;;;;;;;10.28;100.00;99900.13;6328108;28;20040;-78
2024/02/25 13:52:33;;;;;;;0.57;0.52;;;;;;;9.90;98.94;99902.56;6328495;28;20424;-77
2024/02/25 13:55:34;;;;;;;3.58;0.82;;;;;;;9.78;100.00;99898.09;6328257;28;20047;-78
2024/02/25 13:58:35;;;;;;;1.05;0.60;;;;;;;9.74;100.00;99905.31;6327862;28;20040;-77
2024/02/25 14:01:38;;;;;;;2.60;0.70;;;;;;;9.68;100.00;99900.47;6328515;28;20047;-76
2024/02/25 14:04:40;;;;;;;0.57;0.50;;;;;;;9.77;100.00;99902.53;6327689;28;20050;-78
2024/02/25 14:07:42;;;;;;;1.42;0.45;;;;;;;9.85;100.00;99902.00;6328405;28;20055;-77
2024/02/25 14:10:43;;;;;;;3.42;1.75;;;;;;;9.93;100.00;99915.50;6316447;28;20325;-78
2024/02/25 14:13:44;;;;;;;0.32;0.32;;;;;;;9.92;100.00;99895.44;6325654;28;20051;-77
2024/02/25 14:16:47;;;;;;;2.47;0.90;;;;;;;9.90;100.00;99892.94;6327977;28;20322;-78